sensor_id;sensor_type;location;lat;lon;timestamp;P1;durP1;ratioP1;P2;durP2;ratioP2
58990;SDS011;44781;53.444;14.476;2023-01-19T00:01:06;28.30;;;17.30;;
58990;SDS011;44781;53.444;14.476;2023-01-19T00:03:34;33.70;;;17.30;;
58990;SDS011;44781;53.444;14.476;2023-01-19T00:06:05;31.90;;;15.30;;
58990;SDS011;44781;53.444;14.476;2023-01-19T00:08:33;37.00;;;20.00;;
58990;SDS011;44781;53.444;14.476;2023-01-19T00:13:32;33.90;;;18.80;;
58990;SDS011;44781;53.444;14.476;2023-01-19T00:15:59;33.20;;;16.50;;
58990;SDS011;44781;53.444;14.476;2023-01-19T00:18:26;34.50;;;17.00;;
58990;SDS011;44781;53.444;14.476;2023-01-19T00:20:54;31.70;;;16.60;;
58990;SDS011;44781;53.444;14.476;2023-01-19T00:23:22;27.70;;;16.00;;
58990;SDS011;44781;53.444;14.476;2023-01-19T00:25:49;26.80;;;14.20;;
58990;SDS011;44781;53.444;14.476;2023-01-19T00:28:17;25.80;;;14.70;;
58990;SDS011;44781;53.444;14.476;2023-01-19T00:30:45;28.00;;;14.50;;
58990;SDS011;44781;53.444;14.476;2023-01-19T00:33:12;27.80;;;15.50;;
58990;SDS011;44781;53.444;14.476;2023-01-19T00:35:40;34.20;;;15.60;;
58990;SDS011;44781;53.444;14.476;2023-01-19T00:38:11;24.90;;;15.20;;
58990;SDS011;44781;53.444;14.476;2023-01-19T00:40:38;26.70;;;14.00;;
58990;SDS011;44781;53.444;14.476;2023-01-19T00:43:05;29.10;;;15.30;;
58990;SDS011;44781;53.444;14.476;2023-01-19T00:45:33;27.10;;;14.50;;
58990;SDS011;44781;53.444;14.476;2023-01-19T00:48:01;27.80;;;14.80;;
58990;SDS011;44781;53.444;14.476;2023-01-19T00:50:29;25.30;;;13.50;;
58990;SDS011;44781;53.444;14.476;2023-01-19T00:52:57;28.70;;;14.60;;
58990;SDS011;44781;53.444;14.476;2023-01-19T00:57:57;24.80;;;12.90;;
58990;SDS011;44781;53.444;14.476;2023-01-19T01:00:24;25.20;;;13.30;;
58990;SDS011;44781;53.444;14.476;2023-01-19T01:02:52;25.60;;;14.80;;
58990;SDS011;44781;53.444;14.476;2023-01-19T01:05:20;24.80;;;13.60;;
58990;SDS011;44781;53.444;14.476;2023-01-19T01:07:48;24.90;;;13.90;;
58990;SDS011;44781;53.444;14.476;2023-01-19T01:10:17;26.20;;;13.50;;
58990;SDS011;44781;53.444;14.476;2023-01-19T01:12:47;24.20;;;13.20;;
58990;SDS011;44781;53.444;14.476;2023-01-19T01:15:15;27.50;;;13.30;;
58990;SDS011;44781;53.444;14.476;2023-01-19T01:17:44;23.40;;;13.50;;
58990;SDS011;44781;53.444;14.476;2023-01-19T01:20:18;23.20;;;13.20;;
58990;SDS011;44781;53.444;14.476;2023-01-19T01:22:48;27.10;;;13.70;;
58990;SDS011;44781;53.444;14.476;2023-01-19T01:25:19;25.20;;;13.80;;
58990;SDS011;44781;53.444;14.476;2023-01-19T01:27:49;27.10;;;14.50;;
58990;SDS011;44781;53.444;14.476;2023-01-19T01:30:16;23.90;;;15.10;;
58990;SDS011;44781;53.444;14.476;2023-01-19T01:32:46;31.60;;;16.20;;
58990;SDS011;44781;53.444;14.476;2023-01-19T01:35:13;32.10;;;15.00;;
58990;SDS011;44781;53.444;14.476;2023-01-19T01:37:41;26.90;;;13.90;;
58990;SDS011;44781;53.444;14.476;2023-01-19T01:40:10;27.40;;;13.50;;
58990;SDS011;44781;53.444;14.476;2023-01-19T01:42:39;25.60;;;13.30;;
58990;SDS011;44781;53.444;14.476;2023-01-19T01:45:06;25.00;;;13.40;;
58990;SDS011;44781;53.444;14.476;2023-01-19T01:47:50;27.60;;;14.00;;
58990;SDS011;44781;53.444;14.476;2023-01-19T01:50:20;29.20;;;15.30;;
58990;SDS011;44781;53.444;14.476;2023-01-19T01:53:02;26.20;;;14.80;;
58990;SDS011;44781;53.444;14.476;2023-01-19T01:55:35;23.30;;;13.10;;
58990;SDS011;44781;53.444;14.476;2023-01-19T01:58:07;21.00;;;11.30;;
58990;SDS011;44781;53.444;14.476;2023-01-19T02:00:36;20.70;;;11.50;;
58990;SDS011;44781;53.444;14.476;2023-01-19T02:03:24;27.00;;;12.80;;
58990;SDS011;44781;53.444;14.476;2023-01-19T02:05:54;24.20;;;12.10;;
58990;SDS011;44781;53.444;14.476;2023-01-19T02:08:42;24.10;;;11.00;;
58990;SDS011;44781;53.444;14.476;2023-01-19T02:11:33;24.00;;;12.10;;
58990;SDS011;44781;53.444;14.476;2023-01-19T02:14:20;21.70;;;10.80;;
58990;SDS011;44781;53.444;14.476;2023-01-19T02:16:47;23.20;;;11.80;;
58990;SDS011;44781;53.444;14.476;2023-01-19T02:19:24;27.00;;;12.40;;
58990;SDS011;44781;53.444;14.476;2023-01-19T02:22:02;24.70;;;14.00;;
58990;SDS011;44781;53.444;14.476;2023-01-19T02:24:37;23.20;;;12.30;;
58990;SDS011;44781;53.444;14.476;2023-01-19T02:27:04;24.00;;;12.30;;
58990;SDS011;44781;53.444;14.476;2023-01-19T02:29:33;21.40;;;13.80;;
58990;SDS011;44781;53.444;14.476;2023-01-19T02:32:01;21.30;;;11.20;;
58990;SDS011;44781;53.444;14.476;2023-01-19T02:34:31;21.00;;;11.20;;
58990;SDS011;44781;53.444;14.476;2023-01-19T02:36:59;23.50;;;12.40;;
58990;SDS011;44781;53.444;14.476;2023-01-19T02:39:33;19.70;;;12.30;;
58990;SDS011;44781;53.444;14.476;2023-01-19T02:42:10;20.80;;;12.00;;
58990;SDS011;44781;53.444;14.476;2023-01-19T02:44:42;23.50;;;13.70;;
58990;SDS011;44781;53.444;14.476;2023-01-19T02:47:12;23.10;;;12.80;;
58990;SDS011;44781;53.444;14.476;2023-01-19T02:49:40;23.30;;;13.80;;
58990;SDS011;44781;53.444;14.476;2023-01-19T02:52:09;25.60;;;13.90;;
58990;SDS011;44781;53.444;14.476;2023-01-19T03:00:24;16.80;;;9.90;;
58990;SDS011;44781;53.444;14.476;2023-01-19T03:03:11;18.30;;;10.10;;
58990;SDS011;44781;53.444;14.476;2023-01-19T03:05:56;19.70;;;11.40;;
58990;SDS011;44781;53.444;14.476;2023-01-19T03:08:51;20.90;;;11.90;;
58990;SDS011;44781;53.444;14.476;2023-01-19T03:11:26;20.70;;;12.00;;
58990;SDS011;44781;53.444;14.476;2023-01-19T03:14:03;21.50;;;11.60;;
58990;SDS011;44781;53.444;14.476;2023-01-19T03:16:43;22.80;;;10.40;;
58990;SDS011;44781;53.444;14.476;2023-01-19T03:19:20;16.90;;;10.20;;
58990;SDS011;44781;53.444;14.476;2023-01-19T03:21:59;19.10;;;10.80;;
58990;SDS011;44781;53.444;14.476;2023-01-19T03:24:36;19.40;;;10.70;;
58990;SDS011;44781;53.444;14.476;2023-01-19T03:27:09;21.70;;;10.60;;
58990;SDS011;44781;53.444;14.476;2023-01-19T03:29:41;19.70;;;10.50;;
58990;SDS011;44781;53.444;14.476;2023-01-19T03:32:15;20.50;;;10.80;;
58990;SDS011;44781;53.444;14.476;2023-01-19T03:34:45;21.90;;;11.30;;
58990;SDS011;44781;53.444;14.476;2023-01-19T03:37:15;25.00;;;14.20;;
58990;SDS011;44781;53.444;14.476;2023-01-19T03:39:45;21.30;;;12.70;;
58990;SDS011;44781;53.444;14.476;2023-01-19T03:42:13;18.50;;;11.60;;
58990;SDS011;44781;53.444;14.476;2023-01-19T03:44:43;21.90;;;11.70;;
58990;SDS011;44781;53.444;14.476;2023-01-19T03:47:16;21.90;;;11.90;;
58990;SDS011;44781;53.444;14.476;2023-01-19T03:49:46;20.20;;;11.80;;
58990;SDS011;44781;53.444;14.476;2023-01-19T03:52:16;19.20;;;11.00;;
58990;SDS011;44781;53.444;14.476;2023-01-19T03:54:43;20.70;;;11.80;;
58990;SDS011;44781;53.444;14.476;2023-01-19T03:57:11;20.90;;;11.40;;
58990;SDS011;44781;53.444;14.476;2023-01-19T03:59:38;19.00;;;10.70;;
58990;SDS011;44781;53.444;14.476;2023-01-19T04:02:06;21.20;;;11.80;;
58990;SDS011;44781;53.444;14.476;2023-01-19T04:04:34;20.70;;;11.30;;
58990;SDS011;44781;53.444;14.476;2023-01-19T04:07:01;18.40;;;10.10;;
58990;SDS011;44781;53.444;14.476;2023-01-19T04:09:28;24.00;;;12.80;;
58990;SDS011;44781;53.444;14.476;2023-01-19T04:11:56;23.00;;;12.00;;
58990;SDS011;44781;53.444;14.476;2023-01-19T04:14:23;24.50;;;13.60;;
58990;SDS011;44781;53.444;14.476;2023-01-19T04:16:51;23.90;;;13.80;;
58990;SDS011;44781;53.444;14.476;2023-01-19T04:19:18;24.20;;;13.00;;
58990;SDS011;44781;53.444;14.476;2023-01-19T04:21:48;25.30;;;14.80;;
58990;SDS011;44781;53.444;14.476;2023-01-19T04:24:17;23.80;;;13.80;;
58990;SDS011;44781;53.444;14.476;2023-01-19T04:26:44;22.60;;;11.80;;
58990;SDS011;44781;53.444;14.476;2023-01-19T04:29:11;21.80;;;10.80;;
58990;SDS011;44781;53.444;14.476;2023-01-19T04:31:40;23.00;;;11.90;;
58990;SDS011;44781;53.444;14.476;2023-01-19T04:34:07;17.20;;;10.10;;
58990;SDS011;44781;53.444;14.476;2023-01-19T04:36:34;22.20;;;12.30;;
58990;SDS011;44781;53.444;14.476;2023-01-19T04:39:01;18.90;;;10.90;;
58990;SDS011;44781;53.444;14.476;2023-01-19T04:41:29;21.70;;;10.90;;
58990;SDS011;44781;53.444;14.476;2023-01-19T04:43:56;18.90;;;10.50;;
58990;SDS011;44781;53.444;14.476;2023-01-19T04:46:24;19.70;;;10.10;;
58990;SDS011;44781;53.444;14.476;2023-01-19T04:48:51;20.80;;;11.50;;
58990;SDS011;44781;53.444;14.476;2023-01-19T04:51:19;21.30;;;10.80;;
58990;SDS011;44781;53.444;14.476;2023-01-19T04:53:46;19.60;;;12.00;;
58990;SDS011;44781;53.444;14.476;2023-01-19T04:56:14;16.70;;;10.30;;
58990;SDS011;44781;53.444;14.476;2023-01-19T04:58:41;17.70;;;10.70;;
58990;SDS011;44781;53.444;14.476;2023-01-19T05:01:08;18.90;;;10.80;;
58990;SDS011;44781;53.444;14.476;2023-01-19T05:03:35;17.80;;;10.60;;
58990;SDS011;44781;53.444;14.476;2023-01-19T05:06:03;18.40;;;11.30;;
58990;SDS011;44781;53.444;14.476;2023-01-19T05:08:31;19.90;;;10.90;;
58990;SDS011;44781;53.444;14.476;2023-01-19T05:10:58;20.50;;;11.70;;
58990;SDS011;44781;53.444;14.476;2023-01-19T05:13:26;20.60;;;11.20;;
58990;SDS011;44781;53.444;14.476;2023-01-19T05:15:53;19.50;;;12.30;;
58990;SDS011;44781;53.444;14.476;2023-01-19T05:18:21;22.30;;;13.10;;
58990;SDS011;44781;53.444;14.476;2023-01-19T05:20:48;19.20;;;12.10;;
58990;SDS011;44781;53.444;14.476;2023-01-19T05:23:17;20.50;;;12.10;;
58990;SDS011;44781;53.444;14.476;2023-01-19T05:25:44;19.80;;;12.00;;
58990;SDS011;44781;53.444;14.476;2023-01-19T05:28:11;22.40;;;12.50;;
58990;SDS011;44781;53.444;14.476;2023-01-19T05:30:39;23.30;;;11.50;;
58990;SDS011;44781;53.444;14.476;2023-01-19T05:33:06;21.40;;;11.60;;
58990;SDS011;44781;53.444;14.476;2023-01-19T05:35:34;21.70;;;11.70;;
58990;SDS011;44781;53.444;14.476;2023-01-19T05:38:02;23.10;;;13.40;;
58990;SDS011;44781;53.444;14.476;2023-01-19T05:40:30;23.40;;;12.60;;
58990;SDS011;44781;53.444;14.476;2023-01-19T05:42:57;22.30;;;12.70;;
58990;SDS011;44781;53.444;14.476;2023-01-19T05:45:26;25.90;;;13.00;;
58990;SDS011;44781;53.444;14.476;2023-01-19T05:47:56;23.90;;;13.80;;
58990;SDS011;44781;53.444;14.476;2023-01-19T05:50:24;20.10;;;12.90;;
58990;SDS011;44781;53.444;14.476;2023-01-19T05:52:51;21.70;;;12.20;;
58990;SDS011;44781;53.444;14.476;2023-01-19T05:55:19;22.70;;;12.60;;
58990;SDS011;44781;53.444;14.476;2023-01-19T05:57:46;21.40;;;12.80;;
58990;SDS011;44781;53.444;14.476;2023-01-19T06:00:14;20.90;;;13.30;;
58990;SDS011;44781;53.444;14.476;2023-01-19T06:02:42;21.20;;;13.60;;
58990;SDS011;44781;53.444;14.476;2023-01-19T06:05:09;23.40;;;14.70;;
58990;SDS011;44781;53.444;14.476;2023-01-19T06:07:37;25.20;;;16.10;;
58990;SDS011;44781;53.444;14.476;2023-01-19T06:10:05;22.30;;;14.70;;
58990;SDS011;44781;53.444;14.476;2023-01-19T06:12:32;23.90;;;14.30;;
58990;SDS011;44781;53.444;14.476;2023-01-19T06:15:00;28.70;;;17.60;;
58990;SDS011;44781;53.444;14.476;2023-01-19T06:17:27;37.50;;;20.40;;
58990;SDS011;44781;53.444;14.476;2023-01-19T06:19:54;30.70;;;18.80;;
58990;SDS011;44781;53.444;14.476;2023-01-19T06:22:22;24.00;;;15.30;;
58990;SDS011;44781;53.444;14.476;2023-01-19T06:24:52;26.70;;;19.20;;
58990;SDS011;44781;53.444;14.476;2023-01-19T06:27:19;28.90;;;21.00;;
58990;SDS011;44781;53.444;14.476;2023-01-19T06:29:47;34.40;;;20.10;;
58990;SDS011;44781;53.444;14.476;2023-01-19T06:32:14;27.10;;;16.70;;
58990;SDS011;44781;53.444;14.476;2023-01-19T06:34:43;28.10;;;17.00;;
58990;SDS011;44781;53.444;14.476;2023-01-19T06:37:12;28.40;;;17.80;;
58990;SDS011;44781;53.444;14.476;2023-01-19T06:39:42;23.00;;;16.10;;
58990;SDS011;44781;53.444;14.476;2023-01-19T06:42:11;22.70;;;14.30;;
58990;SDS011;44781;53.444;14.476;2023-01-19T06:44:38;24.70;;;14.00;;
58990;SDS011;44781;53.444;14.476;2023-01-19T06:47:15;22.30;;;15.40;;
58990;SDS011;44781;53.444;14.476;2023-01-19T06:49:42;23.10;;;14.60;;
58990;SDS011;44781;53.444;14.476;2023-01-19T06:52:20;24.50;;;16.60;;
58990;SDS011;44781;53.444;14.476;2023-01-19T06:54:48;22.30;;;15.00;;
58990;SDS011;44781;53.444;14.476;2023-01-19T06:57:15;26.20;;;15.60;;
58990;SDS011;44781;53.444;14.476;2023-01-19T06:59:44;27.40;;;15.20;;
58990;SDS011;44781;53.444;14.476;2023-01-19T07:02:11;25.60;;;17.30;;
58990;SDS011;44781;53.444;14.476;2023-01-19T07:04:40;21.40;;;13.20;;
58990;SDS011;44781;53.444;14.476;2023-01-19T07:07:08;20.80;;;13.50;;
58990;SDS011;44781;53.444;14.476;2023-01-19T07:09:35;20.50;;;13.80;;
58990;SDS011;44781;53.444;14.476;2023-01-19T07:12:03;22.40;;;13.40;;
58990;SDS011;44781;53.444;14.476;2023-01-19T07:14:31;27.90;;;15.80;;
58990;SDS011;44781;53.444;14.476;2023-01-19T07:17:02;25.20;;;14.40;;
58990;SDS011;44781;53.444;14.476;2023-01-19T07:19:29;24.40;;;12.80;;
58990;SDS011;44781;53.444;14.476;2023-01-19T07:21:56;27.80;;;14.80;;
58990;SDS011;44781;53.444;14.476;2023-01-19T07:24:24;36.00;;;18.20;;
58990;SDS011;44781;53.444;14.476;2023-01-19T07:26:52;50.20;;;24.20;;
58990;SDS011;44781;53.444;14.476;2023-01-19T07:29:20;37.00;;;19.00;;
58990;SDS011;44781;53.444;14.476;2023-01-19T07:31:47;35.20;;;18.10;;
58990;SDS011;44781;53.444;14.476;2023-01-19T07:34:15;44.00;;;21.70;;
58990;SDS011;44781;53.444;14.476;2023-01-19T07:36:46;38.00;;;21.80;;
58990;SDS011;44781;53.444;14.476;2023-01-19T07:39:14;28.40;;;18.50;;
58990;SDS011;44781;53.444;14.476;2023-01-19T07:41:41;28.30;;;15.00;;
58990;SDS011;44781;53.444;14.476;2023-01-19T07:44:09;26.50;;;15.20;;
58990;SDS011;44781;53.444;14.476;2023-01-19T07:46:37;28.50;;;17.60;;
58990;SDS011;44781;53.444;14.476;2023-01-19T07:49:04;30.00;;;18.00;;
58990;SDS011;44781;53.444;14.476;2023-01-19T07:51:31;27.10;;;15.90;;
58990;SDS011;44781;53.444;14.476;2023-01-19T07:53:59;29.80;;;15.60;;
58990;SDS011;44781;53.444;14.476;2023-01-19T07:56:27;28.40;;;15.80;;
58990;SDS011;44781;53.444;14.476;2023-01-19T07:58:57;26.90;;;15.70;;
58990;SDS011;44781;53.444;14.476;2023-01-19T08:01:24;27.50;;;15.80;;
58990;SDS011;44781;53.444;14.476;2023-01-19T08:03:52;24.70;;;14.70;;
58990;SDS011;44781;53.444;14.476;2023-01-19T08:06:23;29.70;;;20.10;;
58990;SDS011;44781;53.444;14.476;2023-01-19T08:08:55;30.90;;;18.70;;
58990;SDS011;44781;53.444;14.476;2023-01-19T08:11:23;27.30;;;17.00;;
58990;SDS011;44781;53.444;14.476;2023-01-19T08:13:50;28.30;;;19.40;;
58990;SDS011;44781;53.444;14.476;2023-01-19T08:16:17;31.90;;;19.10;;
58990;SDS011;44781;53.444;14.476;2023-01-19T08:18:46;27.30;;;15.90;;
58990;SDS011;44781;53.444;14.476;2023-01-19T08:21:13;23.10;;;14.30;;
58990;SDS011;44781;53.444;14.476;2023-01-19T08:23:40;22.40;;;13.90;;
58990;SDS011;44781;53.444;14.476;2023-01-19T08:26:18;23.90;;;12.90;;
58990;SDS011;44781;53.444;14.476;2023-01-19T08:28:49;22.30;;;13.20;;
58990;SDS011;44781;53.444;14.476;2023-01-19T08:31:17;22.30;;;12.70;;
58990;SDS011;44781;53.444;14.476;2023-01-19T08:33:47;24.30;;;13.50;;
58990;SDS011;44781;53.444;14.476;2023-01-19T08:36:15;25.40;;;14.60;;
58990;SDS011;44781;53.444;14.476;2023-01-19T08:38:46;25.00;;;14.30;;
58990;SDS011;44781;53.444;14.476;2023-01-19T08:41:13;25.70;;;16.60;;
58990;SDS011;44781;53.444;14.476;2023-01-19T08:43:42;27.80;;;15.80;;
58990;SDS011;44781;53.444;14.476;2023-01-19T08:46:13;23.90;;;14.90;;
58990;SDS011;44781;53.444;14.476;2023-01-19T08:48:43;29.40;;;16.60;;
58990;SDS011;44781;53.444;14.476;2023-01-19T08:51:11;29.90;;;18.30;;
58990;SDS011;44781;53.444;14.476;2023-01-19T08:53:39;26.10;;;17.70;;
58990;SDS011;44781;53.444;14.476;2023-01-19T08:56:08;26.50;;;17.50;;
58990;SDS011;44781;53.444;14.476;2023-01-19T08:58:41;25.10;;;15.30;;
58990;SDS011;44781;53.444;14.476;2023-01-19T09:01:10;22.60;;;14.10;;
58990;SDS011;44781;53.444;14.476;2023-01-19T09:03:42;24.80;;;14.60;;
58990;SDS011;44781;53.444;14.476;2023-01-19T09:06:10;27.40;;;15.90;;
58990;SDS011;44781;53.444;14.476;2023-01-19T09:08:40;27.20;;;15.70;;
58990;SDS011;44781;53.444;14.476;2023-01-19T09:11:09;22.90;;;14.20;;
58990;SDS011;44781;53.444;14.476;2023-01-19T09:13:38;25.00;;;15.20;;
58990;SDS011;44781;53.444;14.476;2023-01-19T09:16:05;24.60;;;15.40;;
58990;SDS011;44781;53.444;14.476;2023-01-19T09:18:34;25.00;;;16.20;;
58990;SDS011;44781;53.444;14.476;2023-01-19T09:21:02;24.70;;;15.40;;
58990;SDS011;44781;53.444;14.476;2023-01-19T09:23:29;24.50;;;14.90;;
58990;SDS011;44781;53.444;14.476;2023-01-19T09:26:01;28.70;;;16.60;;
58990;SDS011;44781;53.444;14.476;2023-01-19T09:28:30;27.70;;;17.10;;
58990;SDS011;44781;53.444;14.476;2023-01-19T09:30:57;30.30;;;17.50;;
58990;SDS011;44781;53.444;14.476;2023-01-19T09:33:25;24.00;;;15.20;;
58990;SDS011;44781;53.444;14.476;2023-01-19T09:35:52;24.10;;;15.70;;
58990;SDS011;44781;53.444;14.476;2023-01-19T09:38:19;26.30;;;16.50;;
58990;SDS011;44781;53.444;14.476;2023-01-19T09:40:49;24.50;;;14.60;;
58990;SDS011;44781;53.444;14.476;2023-01-19T09:45:59;27.80;;;16.00;;
58990;SDS011;44781;53.444;14.476;2023-01-19T09:48:34;24.60;;;16.30;;
58990;SDS011;44781;53.444;14.476;2023-01-19T09:51:05;26.30;;;15.60;;
58990;SDS011;44781;53.444;14.476;2023-01-19T09:53:48;24.50;;;16.00;;
58990;SDS011;44781;53.444;14.476;2023-01-19T09:56:27;25.40;;;16.90;;
58990;SDS011;44781;53.444;14.476;2023-01-19T09:58:56;29.20;;;18.90;;
58990;SDS011;44781;53.444;14.476;2023-01-19T10:12:43;26.00;;;16.10;;
58990;SDS011;44781;53.444;14.476;2023-01-19T10:18:02;26.80;;;15.50;;
58990;SDS011;44781;53.444;14.476;2023-01-19T10:26:36;24.40;;;16.30;;
58990;SDS011;44781;53.444;14.476;2023-01-19T10:31:39;22.70;;;14.80;;
58990;SDS011;44781;53.444;14.476;2023-01-19T10:34:13;27.60;;;17.30;;
58990;SDS011;44781;53.444;14.476;2023-01-19T10:36:45;23.00;;;14.90;;
58990;SDS011;44781;53.444;14.476;2023-01-19T10:39:16;23.30;;;14.60;;
58990;SDS011;44781;53.444;14.476;2023-01-19T10:41:49;22.20;;;14.30;;
58990;SDS011;44781;53.444;14.476;2023-01-19T10:44:22;25.30;;;16.00;;
58990;SDS011;44781;53.444;14.476;2023-01-19T10:46:50;28.60;;;17.60;;
58990;SDS011;44781;53.444;14.476;2023-01-19T10:49:22;33.40;;;20.70;;
58990;SDS011;44781;53.444;14.476;2023-01-19T10:51:55;26.80;;;16.90;;
58990;SDS011;44781;53.444;14.476;2023-01-19T10:54:24;32.50;;;19.70;;
58990;SDS011;44781;53.444;14.476;2023-01-19T10:56:57;25.40;;;16.20;;
58990;SDS011;44781;53.444;14.476;2023-01-19T10:59:33;24.70;;;15.70;;
58990;SDS011;44781;53.444;14.476;2023-01-19T11:04:48;21.90;;;14.40;;
58990;SDS011;44781;53.444;14.476;2023-01-19T11:07:21;25.50;;;16.10;;
58990;SDS011;44781;53.444;14.476;2023-01-19T11:09:49;25.80;;;16.30;;
58990;SDS011;44781;53.444;14.476;2023-01-19T11:15:22;23.60;;;15.90;;
58990;SDS011;44781;53.444;14.476;2023-01-19T11:17:54;24.70;;;16.10;;
58990;SDS011;44781;53.444;14.476;2023-01-19T11:23:30;21.40;;;15.00;;
58990;SDS011;44781;53.444;14.476;2023-01-19T11:26:00;24.30;;;16.50;;
58990;SDS011;44781;53.444;14.476;2023-01-19T11:28:32;21.70;;;13.80;;
58990;SDS011;44781;53.444;14.476;2023-01-19T11:31:15;22.70;;;15.50;;
58990;SDS011;44781;53.444;14.476;2023-01-19T11:33:48;20.10;;;12.90;;
58990;SDS011;44781;53.444;14.476;2023-01-19T11:36:25;22.80;;;13.70;;
58990;SDS011;44781;53.444;14.476;2023-01-19T11:38:56;18.60;;;12.20;;
58990;SDS011;44781;53.444;14.476;2023-01-19T11:41:29;18.30;;;12.20;;
58990;SDS011;44781;53.444;14.476;2023-01-19T11:44:01;18.00;;;11.40;;
58990;SDS011;44781;53.444;14.476;2023-01-19T11:46:43;19.00;;;13.70;;
58990;SDS011;44781;53.444;14.476;2023-01-19T11:49:19;19.50;;;12.70;;
58990;SDS011;44781;53.444;14.476;2023-01-19T11:57:48;19.90;;;12.80;;
58990;SDS011;44781;53.444;14.476;2023-01-19T12:00:33;23.00;;;17.40;;
58990;SDS011;44781;53.444;14.476;2023-01-19T12:03:39;18.40;;;12.00;;
58990;SDS011;44781;53.444;14.476;2023-01-19T12:06:19;17.30;;;11.20;;
58990;SDS011;44781;53.444;14.476;2023-01-19T12:08:56;18.90;;;12.20;;
58990;SDS011;44781;53.444;14.476;2023-01-19T12:11:32;20.70;;;12.60;;
58990;SDS011;44781;53.444;14.476;2023-01-19T12:14:02;19.30;;;12.70;;
58990;SDS011;44781;53.444;14.476;2023-01-19T12:16:32;18.10;;;11.40;;
58990;SDS011;44781;53.444;14.476;2023-01-19T12:21:40;21.90;;;12.50;;
58990;SDS011;44781;53.444;14.476;2023-01-19T12:26:55;19.80;;;12.40;;
58990;SDS011;44781;53.444;14.476;2023-01-19T12:29:26;21.70;;;12.60;;
58990;SDS011;44781;53.444;14.476;2023-01-19T12:34:40;20.30;;;12.00;;
58990;SDS011;44781;53.444;14.476;2023-01-19T12:40:27;18.20;;;11.70;;
58990;SDS011;44781;53.444;14.476;2023-01-19T12:43:01;18.50;;;12.00;;
58990;SDS011;44781;53.444;14.476;2023-01-19T12:45:34;16.70;;;11.70;;
58990;SDS011;44781;53.444;14.476;2023-01-19T12:48:09;20.90;;;13.30;;
58990;SDS011;44781;53.444;14.476;2023-01-19T12:50:51;18.40;;;12.20;;
58990;SDS011;44781;53.444;14.476;2023-01-19T12:53:19;22.60;;;13.10;;
58990;SDS011;44781;53.444;14.476;2023-01-19T12:55:57;17.80;;;12.50;;
58990;SDS011;44781;53.444;14.476;2023-01-19T12:58:26;32.60;;;18.40;;
58990;SDS011;44781;53.444;14.476;2023-01-19T13:01:11;24.60;;;15.00;;
58990;SDS011;44781;53.444;14.476;2023-01-19T13:03:43;20.80;;;13.80;;
58990;SDS011;44781;53.444;14.476;2023-01-19T13:14:40;19.60;;;12.30;;
58990;SDS011;44781;53.444;14.476;2023-01-19T13:20:00;20.20;;;12.80;;
58990;SDS011;44781;53.444;14.476;2023-01-19T13:26:01;17.90;;;11.50;;
58990;SDS011;44781;53.444;14.476;2023-01-19T13:28:34;18.50;;;11.40;;
58990;SDS011;44781;53.444;14.476;2023-01-19T13:31:07;19.80;;;13.00;;
58990;SDS011;44781;53.444;14.476;2023-01-19T13:33:38;18.30;;;12.70;;
58990;SDS011;44781;53.444;14.476;2023-01-19T13:36:14;17.80;;;12.10;;
58990;SDS011;44781;53.444;14.476;2023-01-19T13:38:49;17.80;;;11.20;;
58990;SDS011;44781;53.444;14.476;2023-01-19T13:41:18;16.10;;;10.80;;
58990;SDS011;44781;53.444;14.476;2023-01-19T13:46:54;17.40;;;11.60;;
58990;SDS011;44781;53.444;14.476;2023-01-19T13:52:10;20.10;;;12.30;;
58990;SDS011;44781;53.444;14.476;2023-01-19T14:02:59;16.10;;;10.30;;
58990;SDS011;44781;53.444;14.476;2023-01-19T14:05:32;16.00;;;10.60;;
58990;SDS011;44781;53.444;14.476;2023-01-19T14:13:18;19.80;;;13.20;;
58990;SDS011;44781;53.444;14.476;2023-01-19T14:15:49;19.00;;;12.00;;
58990;SDS011;44781;53.444;14.476;2023-01-19T14:26:06;22.00;;;13.80;;
58990;SDS011;44781;53.444;14.476;2023-01-19T14:29:46;17.80;;;12.50;;
58990;SDS011;44781;53.444;14.476;2023-01-19T14:34:32;24.90;;;16.90;;
58990;SDS011;44781;53.444;14.476;2023-01-19T14:37:02;22.40;;;15.20;;
58990;SDS011;44781;53.444;14.476;2023-01-19T14:39:34;20.20;;;13.30;;
58990;SDS011;44781;53.444;14.476;2023-01-19T14:42:03;20.20;;;13.30;;
58990;SDS011;44781;53.444;14.476;2023-01-19T14:44:33;17.40;;;12.00;;
58990;SDS011;44781;53.444;14.476;2023-01-19T14:47:03;21.70;;;12.90;;
58990;SDS011;44781;53.444;14.476;2023-01-19T14:52:15;21.50;;;13.10;;
58990;SDS011;44781;53.444;14.476;2023-01-19T14:54:51;23.50;;;15.10;;
58990;SDS011;44781;53.444;14.476;2023-01-19T14:57:20;21.70;;;14.50;;
58990;SDS011;44781;53.444;14.476;2023-01-19T14:59:47;19.50;;;12.70;;
58990;SDS011;44781;53.444;14.476;2023-01-19T15:02:16;20.50;;;14.20;;
58990;SDS011;44781;53.444;14.476;2023-01-19T15:04:46;22.30;;;13.70;;
58990;SDS011;44781;53.444;14.476;2023-01-19T15:07:15;32.20;;;21.60;;
58990;SDS011;44781;53.444;14.476;2023-01-19T15:09:53;27.70;;;19.00;;
58990;SDS011;44781;53.444;14.476;2023-01-19T15:12:28;22.60;;;16.70;;
58990;SDS011;44781;53.444;14.476;2023-01-19T15:14:56;21.70;;;15.30;;
58990;SDS011;44781;53.444;14.476;2023-01-19T15:17:50;21.50;;;15.60;;
58990;SDS011;44781;53.444;14.476;2023-01-19T15:20:21;23.10;;;15.10;;
58990;SDS011;44781;53.444;14.476;2023-01-19T15:22:55;20.60;;;15.10;;
58990;SDS011;44781;53.444;14.476;2023-01-19T15:28:34;23.00;;;14.90;;
58990;SDS011;44781;53.444;14.476;2023-01-19T15:31:02;23.80;;;14.90;;
58990;SDS011;44781;53.444;14.476;2023-01-19T15:33:31;26.20;;;16.60;;
58990;SDS011;44781;53.444;14.476;2023-01-19T15:35:58;23.90;;;16.50;;
58990;SDS011;44781;53.444;14.476;2023-01-19T15:38:27;20.70;;;15.20;;
58990;SDS011;44781;53.444;14.476;2023-01-19T15:40:57;21.20;;;15.50;;
58990;SDS011;44781;53.444;14.476;2023-01-19T15:43:34;23.10;;;15.70;;
58990;SDS011;44781;53.444;14.476;2023-01-19T15:46:07;25.20;;;16.40;;
58990;SDS011;44781;53.444;14.476;2023-01-19T15:48:52;32.20;;;20.50;;
58990;SDS011;44781;53.444;14.476;2023-01-19T15:51:23;38.70;;;25.20;;
58990;SDS011;44781;53.444;14.476;2023-01-19T15:53:52;50.30;;;32.50;;
58990;SDS011;44781;53.444;14.476;2023-01-19T15:56:22;38.30;;;26.60;;
58990;SDS011;44781;53.444;14.476;2023-01-19T15:58:52;38.40;;;24.20;;
58990;SDS011;44781;53.444;14.476;2023-01-19T16:01:22;31.20;;;21.20;;
58990;SDS011;44781;53.444;14.476;2023-01-19T16:04:00;23.30;;;16.30;;
58990;SDS011;44781;53.444;14.476;2023-01-19T16:06:34;26.90;;;18.60;;
58990;SDS011;44781;53.444;14.476;2023-01-19T16:09:01;35.10;;;21.80;;
58990;SDS011;44781;53.444;14.476;2023-01-19T16:11:30;33.10;;;20.80;;
58990;SDS011;44781;53.444;14.476;2023-01-19T16:13:59;35.60;;;22.50;;
58990;SDS011;44781;53.444;14.476;2023-01-19T16:16:27;35.00;;;21.00;;
58990;SDS011;44781;53.444;14.476;2023-01-19T16:18:55;28.20;;;18.90;;
58990;SDS011;44781;53.444;14.476;2023-01-19T16:21:23;26.00;;;17.20;;